sensor_id;sensor_type;location;lat;lon;timestamp;pressure;altitude;pressure_sealevel;temperature;humidity
46456;BME280;64052;47.466;9.094;2023-03-01T00:03:17;96137.06;;;3.07;57.60
46456;BME280;64052;47.466;9.094;2023-03-01T00:08:19;96131.72;;;3.10;57.23
46456;BME280;64052;47.466;9.094;2023-03-01T00:13:20;96131.56;;;3.13;57.38
46456;BME280;64052;47.466;9.094;2023-03-01T00:18:22;96122.81;;;3.14;57.32
46456;BME280;64052;47.466;9.094;2023-03-01T00:23:24;96119.06;;;3.02;57.88
46456;BME280;64052;47.466;9.094;2023-03-01T00:28:25;96118.69;;;3.10;57.76
46456;BME280;64052;47.466;9.094;2023-03-01T00:33:27;96115.97;;;3.12;57.79
46456;BME280;64052;47.466;9.094;2023-03-01T00:38:28;96110.25;;;3.05;57.60
46456;BME280;64052;47.466;9.094;2023-03-01T00:43:30;96107.34;;;3.11;57.68
46456;BME280;64052;47.466;9.094;2023-03-01T00:48:32;96106.94;;;3.19;57.65
46456;BME280;64052;47.466;9.094;2023-03-01T00:53:34;96099.75;;;3.06;58.15
46456;BME280;64052;47.466;9.094;2023-03-01T00:58:36;96096.00;;;3.12;57.66
46456;BME280;64052;47.466;9.094;2023-03-01T01:03:38;96094.91;;;3.16;57.46
46456;BME280;64052;47.466;9.094;2023-03-01T01:08:39;96088.94;;;3.14;57.76
46456;BME280;64052;47.466;9.094;2023-03-01T01:13:41;96089.00;;;3.13;58.22
46456;BME280;64052;47.466;9.094;2023-03-01T01:18:45;96079.44;;;3.13;57.76
46456;BME280;64052;47.466;9.094;2023-03-01T01:23:47;96071.84;;;3.08;58.15
46456;BME280;64052;47.466;9.094;2023-03-01T01:28:50;96066.94;;;3.20;57.94
46456;BME280;64052;47.466;9.094;2023-03-01T01:33:55;96062.19;;;3.11;57.86
46456;BME280;64052;47.466;9.094;2023-03-01T01:38:57;96059.41;;;2.98;58.72
46456;BME280;64052;47.466;9.094;2023-03-01T01:44:25;96051.59;;;2.98;58.50
46456;BME280;64052;47.466;9.094;2023-03-01T01:54:32;96042.34;;;3.08;58.99
46456;BME280;64052;47.466;9.094;2023-03-01T01:59:36;96044.38;;;3.03;58.97
46456;BME280;64052;47.466;9.094;2023-03-01T02:04:40;96035.63;;;3.04;58.91
46456;BME280;64052;47.466;9.094;2023-03-01T02:09:46;96025.81;;;3.09;58.23
46456;BME280;64052;47.466;9.094;2023-03-01T02:14:48;96022.63;;;3.20;58.12
46456;BME280;64052;47.466;9.094;2023-03-01T02:30:19;96005.88;;;3.08;57.98
46456;BME280;64052;47.466;9.094;2023-03-01T02:35:21;96009.91;;;3.14;57.70
46456;BME280;64052;47.466;9.094;2023-03-01T02:40:23;96000.81;;;3.22;57.35
46456;BME280;64052;47.466;9.094;2023-03-01T02:45:26;95997.34;;;3.22;57.22
46456;BME280;64052;47.466;9.094;2023-03-01T02:55:29;95996.69;;;3.34;56.85
46456;BME280;64052;47.466;9.094;2023-03-01T03:00:36;95993.31;;;3.32;57.62
46456;BME280;64052;47.466;9.094;2023-03-01T03:05:39;95992.47;;;3.32;57.07
46456;BME280;64052;47.466;9.094;2023-03-01T03:10:41;95984.16;;;3.41;57.15
46456;BME280;64052;47.466;9.094;2023-03-01T03:15:43;95977.00;;;3.29;57.59
46456;BME280;64052;47.466;9.094;2023-03-01T03:20:45;95961.38;;;3.29;57.03
46456;BME280;64052;47.466;9.094;2023-03-01T03:25:50;95964.59;;;3.34;56.86
46456;BME280;64052;47.466;9.094;2023-03-01T03:30:51;95975.84;;;3.50;56.58
46456;BME280;64052;47.466;9.094;2023-03-01T03:35:53;95972.91;;;3.41;56.85
46456;BME280;64052;47.466;9.094;2023-03-01T03:41:06;95967.50;;;3.28;56.87
46456;BME280;64052;47.466;9.094;2023-03-01T03:46:08;95974.22;;;3.32;57.02
46456;BME280;64052;47.466;9.094;2023-03-01T03:51:16;95970.13;;;3.28;57.05
46456;BME280;64052;47.466;9.094;2023-03-01T03:56:17;95970.88;;;3.30;56.66
46456;BME280;64052;47.466;9.094;2023-03-01T04:01:19;95969.00;;;3.32;56.19
46456;BME280;64052;47.466;9.094;2023-03-01T04:06:20;95968.75;;;3.20;56.94
46456;BME280;64052;47.466;9.094;2023-03-01T04:11:22;95963.47;;;3.22;56.83
46456;BME280;64052;47.466;9.094;2023-03-01T04:16:24;95964.56;;;3.18;57.00
46456;BME280;64052;47.466;9.094;2023-03-01T04:21:26;95957.00;;;3.29;56.51
46456;BME280;64052;47.466;9.094;2023-03-01T04:26:27;95966.34;;;3.33;56.47
46456;BME280;64052;47.466;9.094;2023-03-01T04:31:29;95961.78;;;3.21;57.00
46456;BME280;64052;47.466;9.094;2023-03-01T04:36:31;95958.44;;;3.35;56.66
46456;BME280;64052;47.466;9.094;2023-03-01T04:41:33;95965.47;;;3.33;56.10
46456;BME280;64052;47.466;9.094;2023-03-01T04:46:35;95950.59;;;3.51;56.54
46456;BME280;64052;47.466;9.094;2023-03-01T04:51:36;95947.66;;;3.41;56.01
46456;BME280;64052;47.466;9.094;2023-03-01T04:56:38;95944.13;;;3.42;56.44
46456;BME280;64052;47.466;9.094;2023-03-01T05:01:39;95952.19;;;3.37;56.22
46456;BME280;64052;47.466;9.094;2023-03-01T05:06:41;95945.31;;;3.53;56.21
46456;BME280;64052;47.466;9.094;2023-03-01T05:11:43;95943.63;;;3.51;56.29
46456;BME280;64052;47.466;9.094;2023-03-01T05:16:44;95937.25;;;3.41;56.40
46456;BME280;64052;47.466;9.094;2023-03-01T05:21:46;95942.44;;;3.57;56.37
46456;BME280;64052;47.466;9.094;2023-03-01T05:26:47;95941.03;;;3.51;56.66
46456;BME280;64052;47.466;9.094;2023-03-01T05:31:48;95929.66;;;3.53;56.62
46456;BME280;64052;47.466;9.094;2023-03-01T05:36:50;95920.59;;;3.60;56.52
46456;BME280;64052;47.466;9.094;2023-03-01T05:41:53;95915.94;;;3.49;57.17
46456;BME280;64052;47.466;9.094;2023-03-01T05:46:55;95907.56;;;3.28;57.39
46456;BME280;64052;47.466;9.094;2023-03-01T05:51:56;95907.75;;;3.25;57.97
46456;BME280;64052;47.466;9.094;2023-03-01T05:56:58;95910.69;;;3.34;57.39
46456;BME280;64052;47.466;9.094;2023-03-01T06:01:59;95909.50;;;3.24;57.77
46456;BME280;64052;47.466;9.094;2023-03-01T06:07:01;95903.09;;;3.30;57.85
46456;BME280;64052;47.466;9.094;2023-03-01T06:12:03;95900.19;;;3.36;57.77
46456;BME280;64052;47.466;9.094;2023-03-01T06:17:04;95901.75;;;3.38;57.74
46456;BME280;64052;47.466;9.094;2023-03-01T06:22:06;95898.06;;;3.43;57.61
46456;BME280;64052;47.466;9.094;2023-03-01T06:27:08;95902.59;;;3.39;57.64
46456;BME280;64052;47.466;9.094;2023-03-01T06:32:10;95907.13;;;3.35;57.75
46456;BME280;64052;47.466;9.094;2023-03-01T06:37:12;95902.09;;;3.32;57.55
46456;BME280;64052;47.466;9.094;2023-03-01T06:42:13;95903.47;;;3.40;57.47
46456;BME280;64052;47.466;9.094;2023-03-01T06:47:15;95901.50;;;3.43;57.20
46456;BME280;64052;47.466;9.094;2023-03-01T06:52:17;95903.09;;;3.46;57.02
46456;BME280;64052;47.466;9.094;2023-03-01T06:57:18;95905.38;;;3.52;57.20
46456;BME280;64052;47.466;9.094;2023-03-01T07:02:20;95908.50;;;3.43;57.18
46456;BME280;64052;47.466;9.094;2023-03-01T07:07:21;95907.75;;;3.25;57.83
46456;BME280;64052;47.466;9.094;2023-03-01T07:12:23;95910.16;;;3.44;57.37
46456;BME280;64052;47.466;9.094;2023-03-01T07:17:25;95913.34;;;3.49;57.02
46456;BME280;64052;47.466;9.094;2023-03-01T07:22:26;95903.47;;;3.40;57.34
46456;BME280;64052;47.466;9.094;2023-03-01T07:27:28;95902.91;;;3.49;57.44
46456;BME280;64052;47.466;9.094;2023-03-01T07:32:30;95900.50;;;3.46;57.44
46456;BME280;64052;47.466;9.094;2023-03-01T07:37:31;95901.59;;;3.26;57.57
46456;BME280;64052;47.466;9.094;2023-03-01T07:42:33;95900.69;;;3.43;56.64
46456;BME280;64052;47.466;9.094;2023-03-01T07:47:35;95896.88;;;3.48;56.72
46456;BME280;64052;47.466;9.094;2023-03-01T07:52:36;95897.88;;;3.46;56.67
46456;BME280;64052;47.466;9.094;2023-03-01T07:57:38;95901.56;;;3.58;56.80
46456;BME280;64052;47.466;9.094;2023-03-01T08:02:40;95899.38;;;3.50;56.73
46456;BME280;64052;47.466;9.094;2023-03-01T08:07:41;95894.53;;;3.44;56.83
46456;BME280;64052;47.466;9.094;2023-03-01T08:12:43;95885.09;;;3.57;55.99
46456;BME280;64052;47.466;9.094;2023-03-01T08:17:45;95883.84;;;3.48;56.54
46456;BME280;64052;47.466;9.094;2023-03-01T08:22:46;95876.97;;;3.47;57.05
46456;BME280;64052;47.466;9.094;2023-03-01T08:27:48;95878.19;;;3.56;56.69
46456;BME280;64052;47.466;9.094;2023-03-01T08:32:51;95880.69;;;3.58;56.61
46456;BME280;64052;47.466;9.094;2023-03-01T08:37:53;95871.38;;;3.54;56.35
46456;BME280;64052;47.466;9.094;2023-03-01T08:42:57;95870.22;;;3.43;56.79
46456;BME280;64052;47.466;9.094;2023-03-01T08:47:59;95872.50;;;3.49;56.44
46456;BME280;64052;47.466;9.094;2023-03-01T08:53:02;95869.72;;;3.53;56.75
46456;BME280;64052;47.466;9.094;2023-03-01T08:58:04;95870.28;;;3.58;56.32
46456;BME280;64052;47.466;9.094;2023-03-01T09:03:09;95866.47;;;3.63;56.69
46456;BME280;64052;47.466;9.094;2023-03-01T09:08:11;95859.50;;;3.64;56.45
46456;BME280;64052;47.466;9.094;2023-03-01T09:13:15;95860.25;;;3.66;56.16
46456;BME280;64052;47.466;9.094;2023-03-01T09:18:17;95855.16;;;3.64;55.76
46456;BME280;64052;47.466;9.094;2023-03-01T09:23:19;95859.91;;;3.72;56.28
46456;BME280;64052;47.466;9.094;2023-03-01T09:28:20;95859.13;;;3.70;56.39
46456;BME280;64052;47.466;9.094;2023-03-01T09:33:32;95853.03;;;3.71;56.57
46456;BME280;64052;47.466;9.094;2023-03-01T09:38:34;95853.78;;;3.73;56.57
46456;BME280;64052;47.466;9.094;2023-03-01T09:43:44;95846.50;;;3.78;56.63
46456;BME280;64052;47.466;9.094;2023-03-01T09:48:58;95855.94;;;3.81;56.11
46456;BME280;64052;47.466;9.094;2023-03-01T09:54:04;95842.50;;;3.87;56.50
46456;BME280;64052;47.466;9.094;2023-03-01T09:59:25;95841.03;;;3.83;56.67
46456;BME280;64052;47.466;9.094;2023-03-01T10:04:49;95835.88;;;3.82;56.45
46456;BME280;64052;47.466;9.094;2023-03-01T10:09:51;95836.34;;;3.74;56.72
46456;BME280;64052;47.466;9.094;2023-03-01T10:15:09;95832.06;;;3.73;56.56
46456;BME280;64052;47.466;9.094;2023-03-01T10:25:47;95831.25;;;3.87;57.17
46456;BME280;64052;47.466;9.094;2023-03-01T10:30:47;95822.50;;;3.88;56.73
46456;BME280;64052;47.466;9.094;2023-03-01T10:35:51;95814.59;;;3.89;56.82
46456;BME280;64052;47.466;9.094;2023-03-01T10:41:05;95818.22;;;3.87;56.77
46456;BME280;64052;47.466;9.094;2023-03-01T10:51:25;95814.69;;;3.88;56.97
46456;BME280;64052;47.466;9.094;2023-03-01T10:56:27;95811.81;;;3.92;56.95
46456;BME280;64052;47.466;9.094;2023-03-01T11:01:34;95816.75;;;3.97;56.98
46456;BME280;64052;47.466;9.094;2023-03-01T11:06:38;95815.81;;;3.98;57.12
46456;BME280;64052;47.466;9.094;2023-03-01T11:11:40;95811.72;;;4.08;56.69
46456;BME280;64052;47.466;9.094;2023-03-01T11:16:45;95806.78;;;4.18;56.10
46456;BME280;64052;47.466;9.094;2023-03-01T11:22:01;95800.09;;;4.14;56.35
46456;BME280;64052;47.466;9.094;2023-03-01T11:27:10;95803.53;;;4.15;55.98
46456;BME280;64052;47.466;9.094;2023-03-01T11:32:15;95793.81;;;4.17;55.90
46456;BME280;64052;47.466;9.094;2023-03-01T11:37:37;95792.88;;;4.18;56.01
46456;BME280;64052;47.466;9.094;2023-03-01T11:59:31;95771.94;;;4.19;55.70
46456;BME280;64052;47.466;9.094;2023-03-01T12:10:24;95757.59;;;4.27;55.93
46456;BME280;64052;47.466;9.094;2023-03-01T12:26:10;95753.16;;;4.42;55.71
46456;BME280;64052;47.466;9.094;2023-03-01T12:36:42;95743.13;;;4.35;56.26
46456;BME280;64052;47.466;9.094;2023-03-01T12:47:39;95743.50;;;4.29;55.58
46456;BME280;64052;47.466;9.094;2023-03-01T12:53:00;95738.53;;;4.25;56.13
46456;BME280;64052;47.466;9.094;2023-03-01T13:03:30;95719.84;;;4.32;55.82
46456;BME280;64052;47.466;9.094;2023-03-01T13:09:12;95722.31;;;4.34;55.85
46456;BME280;64052;47.466;9.094;2023-03-01T13:19:37;95709.72;;;4.41;55.39
46456;BME280;64052;47.466;9.094;2023-03-01T13:25:24;95719.16;;;4.43;55.57
46456;BME280;64052;47.466;9.094;2023-03-01T13:30:44;95722.91;;;4.39;55.93
46456;BME280;64052;47.466;9.094;2023-03-01T13:35:46;95730.41;;;4.44;56.47
46456;BME280;64052;47.466;9.094;2023-03-01T13:41:10;95736.97;;;4.36;56.19
46456;BME280;64052;47.466;9.094;2023-03-01T13:46:21;95724.84;;;4.35;56.78
46456;BME280;64052;47.466;9.094;2023-03-01T13:51:26;95734.81;;;4.43;56.26
46456;BME280;64052;47.466;9.094;2023-03-01T13:56:35;95752.22;;;4.43;55.44
46456;BME280;64052;47.466;9.094;2023-03-01T14:01:37;95741.78;;;4.43;55.43
46456;BME280;64052;47.466;9.094;2023-03-01T14:06:41;95744.31;;;4.44;55.32
46456;BME280;64052;47.466;9.094;2023-03-01T14:17:24;95725.22;;;4.29;55.63
46456;BME280;64052;47.466;9.094;2023-03-01T14:22:32;95721.88;;;4.27;56.24
46456;BME280;64052;47.466;9.094;2023-03-01T14:27:37;95723.72;;;4.40;55.98
46456;BME280;64052;47.466;9.094;2023-03-01T14:32:39;95717.19;;;4.47;55.61
46456;BME280;64052;47.466;9.094;2023-03-01T14:37:41;95718.00;;;4.47;55.74
46456;BME280;64052;47.466;9.094;2023-03-01T14:42:42;95702.47;;;4.46;54.99
46456;BME280;64052;47.466;9.094;2023-03-01T14:47:44;95708.00;;;4.54;55.02
46456;BME280;64052;47.466;9.094;2023-03-01T14:52:48;95712.22;;;4.57;55.23
46456;BME280;64052;47.466;9.094;2023-03-01T14:57:51;95706.34;;;4.53;54.67
46456;BME280;64052;47.466;9.094;2023-03-01T15:02:55;95709.69;;;4.55;54.69
46456;BME280;64052;47.466;9.094;2023-03-01T15:07:58;95706.47;;;4.52;54.06
46456;BME280;64052;47.466;9.094;2023-03-01T15:13:23;95713.34;;;4.53;54.09
46456;BME280;64052;47.466;9.094;2023-03-01T15:18:27;95712.69;;;4.49;54.60
46456;BME280;64052;47.466;9.094;2023-03-01T15:23:30;95718.66;;;4.51;54.41
46456;BME280;64052;47.466;9.094;2023-03-01T15:28:39;95713.00;;;4.44;54.97
46456;BME280;64052;47.466;9.094;2023-03-01T15:33:42;95720.72;;;4.46;55.02
46456;BME280;64052;47.466;9.094;2023-03-01T15:38:51;95718.84;;;4.48;55.01
46456;BME280;64052;47.466;9.094;2023-03-01T15:43:53;95711.69;;;4.52;54.88
46456;BME280;64052;47.466;9.094;2023-03-01T15:49:01;95701.78;;;4.57;54.50
46456;BME280;64052;47.466;9.094;2023-03-01T15:54:14;95701.13;;;4.53;54.83
46456;BME280;64052;47.466;9.094;2023-03-01T15:59:18;95700.59;;;4.48;55.20
46456;BME280;64052;47.466;9.094;2023-03-01T16:04:20;95699.34;;;4.54;55.31
46456;BME280;64052;47.466;9.094;2023-03-01T16:09:25;95697.03;;;4.49;54.92
46456;BME280;64052;47.466;9.094;2023-03-01T16:14:27;95696.09;;;4.50;55.16
46456;BME280;64052;47.466;9.094;2023-03-01T16:19:29;95705.75;;;4.62;54.97
46456;BME280;64052;47.466;9.094;2023-03-01T16:24:30;95697.72;;;4.66;54.95
46456;BME280;64052;47.466;9.094;2023-03-01T16:29:32;95697.72;;;4.66;54.39
46456;BME280;64052;47.466;9.094;2023-03-01T16:34:33;95694.91;;;4.69;54.26
46456;BME280;64052;47.466;9.094;2023-03-01T16:39:38;95710.78;;;4.66;54.52
46456;BME280;64052;47.466;9.094;2023-03-01T16:44:39;95709.13;;;4.64;54.41
46456;BME280;64052;47.466;9.094;2023-03-01T16:49:41;95716.84;;;4.66;54.79
46456;BME280;64052;47.466;9.094;2023-03-01T16:54:42;95718.81;;;4.62;55.15
46456;BME280;64052;47.466;9.094;2023-03-01T16:59:44;95715.56;;;4.59;55.27
46456;BME280;64052;47.466;9.094;2023-03-01T17:04:52;95717.81;;;4.50;55.75
46456;BME280;64052;47.466;9.094;2023-03-01T17:09:53;95738.25;;;4.44;56.09
46456;BME280;64052;47.466;9.094;2023-03-01T17:14:55;95736.56;;;4.43;55.80
46456;BME280;64052;47.466;9.094;2023-03-01T17:19:56;95742.06;;;4.38;55.93
46456;BME280;64052;47.466;9.094;2023-03-01T17:24:58;95728.81;;;4.56;55.76
46456;BME280;64052;47.466;9.094;2023-03-01T17:30:00;95743.75;;;4.54;55.44
46456;BME280;64052;47.466;9.094;2023-03-01T17:35:01;95746.34;;;4.54;55.36
46456;BME280;64052;47.466;9.094;2023-03-01T17:40:04;95750.84;;;4.52;55.59
46456;BME280;64052;47.466;9.094;2023-03-01T17:45:06;95741.03;;;4.55;55.57
46456;BME280;64052;47.466;9.094;2023-03-01T17:50:09;95742.69;;;4.56;55.60
46456;BME280;64052;47.466;9.094;2023-03-01T17:55:10;95758.84;;;4.48;55.90
46456;BME280;64052;47.466;9.094;2023-03-01T18:00:14;95751.69;;;4.38;56.58
46456;BME280;64052;47.466;9.094;2023-03-01T18:05:16;95753.66;;;4.34;56.95
46456;BME280;64052;47.466;9.094;2023-03-01T18:10:19;95750.31;;;4.32;56.94
46456;BME280;64052;47.466;9.094;2023-03-01T18:15:20;95749.91;;;4.38;57.07
46456;BME280;64052;47.466;9.094;2023-03-01T18:20:22;95747.22;;;4.40;56.65
46456;BME280;64052;47.466;9.094;2023-03-01T18:25:23;95768.28;;;4.51;56.25
46456;BME280;64052;47.466;9.094;2023-03-01T18:30:25;95751.88;;;4.49;56.25
46456;BME280;64052;47.466;9.094;2023-03-01T18:35:26;95750.38;;;4.45;56.11
46456;BME280;64052;47.466;9.094;2023-03-01T18:40:29;95749.91;;;4.38;56.69
46456;BME280;64052;47.466;9.094;2023-03-01T18:45:30;95747.69;;;4.32;56.93
46456;BME280;64052;47.466;9.094;2023-03-01T18:50:32;95742.94;;;4.39;57.26
46456;BME280;64052;47.466;9.094;2023-03-01T18:55:37;95734.84;;;4.14;58.03
46456;BME280;64052;47.466;9.094;2023-03-01T19:00:41;95729.88;;;4.39;57.89
46456;BME280;64052;47.466;9.094;2023-03-01T19:05:42;95728.56;;;4.31;57.13
46456;BME280;64052;47.466;9.094;2023-03-01T19:10:44;95707.69;;;4.31;57.48
46456;BME280;64052;47.466;9.094;2023-03-01T19:15:45;95710.50;;;4.28;57.78
46456;BME280;64052;47.466;9.094;2023-03-01T19:20:47;95695.50;;;4.17;58.09
46456;BME280;64052;47.466;9.094;2023-03-01T19:26:00;95694.84;;;4.14;58.30
46456;BME280;64052;47.466;9.094;2023-03-01T19:31:05;95693.19;;;4.13;58.98
46456;BME280;64052;47.466;9.094;2023-03-01T19:36:09;95688.16;;;4.10;59.96
46456;BME280;64052;47.466;9.094;2023-03-01T19:41:14;95682.84;;;4.11;59.35
46456;BME280;64052;47.466;9.094;2023-03-01T19:46:15;95680.88;;;4.15;59.26
46456;BME280;64052;47.466;9.094;2023-03-01T19:51:17;95674.38;;;3.93;60.07
46456;BME280;64052;47.466;9.094;2023-03-01T19:56:19;95672.69;;;4.06;59.57
46456;BME280;64052;47.466;9.094;2023-03-01T20:01:20;95668.13;;;4.10;59.86
46456;BME280;64052;47.466;9.094;2023-03-01T20:06:22;95677.91;;;4.06;60.16
46456;BME280;64052;47.466;9.094;2023-03-01T20:11:24;95667.47;;;4.06;60.66
46456;BME280;64052;47.466;9.094;2023-03-01T20:16:26;95669.91;;;4.10;60.42
46456;BME280;64052;47.466;9.094;2023-03-01T20:21:27;95666.56;;;4.07;60.13
46456;BME280;64052;47.466;9.094;2023-03-01T20:26:29;95658.34;;;4.14;59.68
46456;BME280;64052;47.466;9.094;2023-03-01T20:31:31;95656.75;;;4.11;59.32
46456;BME280;64052;47.466;9.094;2023-03-01T20:36:33;95655.28;;;4.07;59.26
46456;BME280;64052;47.466;9.094;2023-03-01T20:41:36;95662.31;;;4.19;59.03
46456;BME280;64052;47.466;9.094;2023-03-01T20:46:37;95652.19;;;4.15;59.20
46456;BME280;64052;47.466;9.094;2023-03-01T20:51:39;95643.13;;;4.20;58.76
46456;BME280;64052;47.466;9.094;2023-03-01T20:56:41;95641.66;;;4.16;60.00
46456;BME280;64052;47.466;9.094;2023-03-01T21:01:42;95645.19;;;4.15;60.08
46456;BME280;64052;47.466;9.094;2023-03-01T21:06:44;95640.56;;;4.06;60.16
46456;BME280;64052;47.466;9.094;2023-03-01T21:11:48;95636.59;;;4.13;59.69
46456;BME280;64052;47.466;9.094;2023-03-01T21:16:50;95626.38;;;4.10;59.42
46456;BME280;64052;47.466;9.094;2023-03-01T21:21:51;95628.13;;;4.24;59.30
46456;BME280;64052;47.466;9.094;2023-03-01T21:26:53;95620.91;;;4.00;59.66
46456;BME280;64052;47.466;9.094;2023-03-01T21:31:55;95616.22;;;4.20;59.72
46456;BME280;64052;47.466;9.094;2023-03-01T21:36:56;95618.06;;;4.18;60.04
46456;BME280;64052;47.466;9.094;2023-03-01T21:42:00;95613.97;;;4.14;60.10
46456;BME280;64052;47.466;9.094;2023-03-01T21:47:02;95601.47;;;4.19;59.75
46456;BME280;64052;47.466;9.094;2023-03-01T21:52:04;95604.91;;;4.19;59.82
46456;BME280;64052;47.466;9.094;2023-03-01T21:57:05;95593.16;;;4.27;59.94
46456;BME280;64052;47.466;9.094;2023-03-01T22:02:10;95587.94;;;4.27;60.19
46456;BME280;64052;47.466;9.094;2023-03-01T22:07:12;95580.91;;;4.14;59.75
46456;BME280;64052;47.466;9.094;2023-03-01T22:12:13;95586.50;;;4.08;60.59
46456;BME280;64052;47.466;9.094;2023-03-01T22:17:15;95575.25;;;4.07;60.26
46456;BME280;64052;47.466;9.094;2023-03-01T22:22:17;95576.25;;;4.05;60.34
46456;BME280;64052;47.466;9.094;2023-03-01T22:27:18;95569.41;;;4.17;60.73
46456;BME280;64052;47.466;9.094;2023-03-01T22:32:20;95573.91;;;4.15;60.59
46456;BME280;64052;47.466;9.094;2023-03-01T22:37:22;95578.59;;;4.10;60.59
46456;BME280;64052;47.466;9.094;2023-03-01T22:42:23;95569.41;;;4.17;60.71
46456;BME280;64052;47.466;9.094;2023-03-01T22:47:25;95560.50;;;4.06;60.38
46456;BME280;64052;47.466;9.094;2023-03-01T22:52:26;95569.25;;;4.05;60.53
46456;BME280;64052;47.466;9.094;2023-03-01T22:57:28;95572.06;;;4.02;60.00
46456;BME280;64052;47.466;9.094;2023-03-01T23:02:31;95566.84;;;4.02;60.30
46456;BME280;64052;47.466;9.094;2023-03-01T23:07:33;95557.88;;;4.06;60.28
46456;BME280;64052;47.466;9.094;2023-03-01T23:12:35;95563.75;;;4.10;60.75
46456;BME280;64052;47.466;9.094;2023-03-01T23:17:37;95566.38;;;4.38;60.54
46456;BME280;64052;47.466;9.094;2023-03-01T23:22:39;95561.13;;;4.38;60.73
46456;BME280;64052;47.466;9.094;2023-03-01T23:27:41;95563.59;;;4.26;60.95
46456;BME280;64052;47.466;9.094;2023-03-01T23:32:43;95552.00;;;4.17;60.88
46456;BME280;64052;47.466;9.094;2023-03-01T23:37:44;95539.69;;;4.19;60.79
46456;BME280;64052;47.466;9.094;2023-03-01T23:42:46;95544.53;;;4.11;60.96
46456;BME280;64052;47.466;9.094;2023-03-01T23:47:47;95534.03;;;4.26;60.95
46456;BME280;64052;47.466;9.094;2023-03-01T23:52:49;95532.38;;;4.25;60.69
46456;BME280;64052;47.466;9.094;2023-03-01T23:57:51;95523.78;;;4.10;61.13
